Time;durP1;ratioP1;P1;durP2;ratioP2;P2;SDS_P1;SDS_P2;PMS_P1;PMS_P2;Temp;Humidity;BMP_temperature;BMP_pressure;BME280_temperature;BME280_humidity;BME280_pressure;Samples;Min_cycle;Max_cycle;Signal;HPM_P1;HPM_P2
2023/01/04 00:00:21;;;;;;;23.93;8.23;;;;;;;6.31;100.00;97533.78;5039989;28;20232;-72
2023/01/04 00:02:48;;;;;;;23.77;7.67;;;;;;;6.22;100.00;97514.41;5042313;28;20208;-70
2023/01/04 00:05:16;;;;;;;22.53;7.13;;;;;;;6.23;100.00;97510.81;5042530;28;20239;-71
2023/01/04 00:07:42;;;;;;;18.03;6.70;;;;;;;6.14;100.00;97522.00;5043209;28;20868;-71
2023/01/04 00:10:09;;;;;;;18.07;6.83;;;;;;;6.29;100.00;97522.63;5042916;28;20674;-71
2023/01/04 00:12:35;;;;;;;21.47;6.57;;;;;;;6.32;100.00;97520.56;5042843;28;20567;-71
2023/01/04 00:15:02;;;;;;;20.63;7.57;;;;;;;6.20;100.00;97515.50;5043107;28;20286;-72
2023/01/04 00:17:29;;;;;;;21.90;6.47;;;;;;;6.25;100.00;97511.56;5041251;28;20215;-71
2023/01/04 00:19:55;;;;;;;22.07;7.30;;;;;;;6.15;100.00;97521.06;5041441;28;20217;-70
2023/01/04 00:22:23;;;;;;;17.97;6.40;;;;;;;6.26;100.00;97514.97;5043577;28;20220;-71
2023/01/04 00:24:49;;;;;;;19.90;7.00;;;;;;;6.19;100.00;97519.88;5042054;28;20580;-72
2023/01/04 00:27:16;;;;;;;21.17;6.43;;;;;;;6.23;100.00;97521.28;5041669;28;20312;-70
2023/01/04 00:29:42;;;;;;;21.00;6.83;;;;;;;6.10;100.00;97533.66;5042973;28;20692;-71
2023/01/04 00:32:09;;;;;;;22.60;7.87;;;;;;;6.01;100.00;97530.94;5043546;28;20899;-71
2023/01/04 00:34:35;;;;;;;19.33;6.23;;;;;;;6.05;100.00;97533.19;5042027;28;20201;-70
2023/01/04 00:37:01;;;;;;;16.63;6.57;;;;;;;6.01;100.00;97523.09;5042991;28;20211;-71
2023/01/04 00:39:29;;;;;;;17.13;6.03;;;;;;;6.06;100.00;97519.16;5042354;28;20560;-71
2023/01/04 00:42:03;;;;;;;16.00;5.43;;;;;;;5.99;100.00;97516.31;5042206;28;20259;-72
2023/01/04 00:44:31;;;;;;;15.13;5.30;;;;;;;6.14;100.00;97516.78;5038073;28;20309;-72
2023/01/04 00:46:58;;;;;;;17.27;5.90;;;;;;;6.03;100.00;97517.72;5043145;28;20228;-72
2023/01/04 00:49:25;;;;;;;17.20;5.97;;;;;;;6.19;100.00;97506.78;5042005;28;21307;-70
2023/01/04 00:51:52;;;;;;;13.97;5.00;;;;;;;6.10;100.00;97506.69;5041277;28;20205;-71
2023/01/04 00:54:18;;;;;;;14.07;5.37;;;;;;;6.06;100.00;97507.88;5040976;28;20213;-72
2023/01/04 00:56:47;;;;;;;12.37;4.50;;;;;;;6.18;100.00;97504.28;5040671;28;20205;-71
2023/01/04 00:59:16;;;;;;;16.80;5.67;;;;;;;6.17;100.00;97511.31;5041532;28;20540;-71
2023/01/04 01:01:43;;;;;;;13.73;5.00;;;;;;;6.10;100.00;97510.13;5041314;28;20221;-71
2023/01/04 01:04:12;;;;;;;14.97;5.33;;;;;;;6.25;100.00;97515.94;5041011;28;20870;-72
2023/01/04 01:06:39;;;;;;;16.17;6.00;;;;;;;6.20;100.00;97513.69;5040808;28;20569;-71
2023/01/04 01:09:05;;;;;;;18.27;6.07;;;;;;;6.33;100.00;97506.53;5041385;28;20296;-72
2023/01/04 01:11:32;;;;;;;18.70;6.63;;;;;;;6.32;100.00;97497.00;5040408;28;20225;-72
2023/01/04 01:13:59;;;;;;;16.40;5.53;;;;;;;6.35;100.00;97498.56;5040439;28;20210;-71
2023/01/04 01:16:26;;;;;;;17.87;5.90;;;;;;;6.25;100.00;97487.13;5040679;28;20255;-71
2023/01/04 01:18:53;;;;;;;14.87;5.03;;;;;;;6.26;100.00;97489.66;5040958;28;20205;-71
2023/01/04 01:21:23;;;;;;;19.83;5.97;;;;;;;6.35;100.00;97488.94;5040314;28;20217;-71
2023/01/04 01:23:50;;;;;;;15.37;5.77;;;;;;;6.42;100.00;97484.88;5040419;28;20243;-72
2023/01/04 01:26:18;;;;;;;14.63;5.00;;;;;;;6.39;100.00;97500.81;5040797;28;20237;-72
2023/01/04 01:28:46;;;;;;;15.50;5.90;;;;;;;6.52;100.00;97484.94;5040680;28;20543;-71
2023/01/04 01:31:15;;;;;;;16.47;5.60;;;;;;;6.57;100.00;97478.41;5040752;28;20732;-72
2023/01/04 01:33:44;;;;;;;14.57;4.83;;;;;;;6.61;100.00;97473.78;5039442;28;20201;-72
2023/01/04 01:36:11;;;;;;;15.07;5.17;;;;;;;6.60;100.00;97470.31;5040272;28;20201;-71
2023/01/04 01:38:38;;;;;;;17.70;6.00;;;;;;;6.42;100.00;97460.47;5040503;28;20205;-72
2023/01/04 01:41:06;;;;;;;13.00;5.40;;;;;;;6.44;100.00;97472.50;5039945;28;20220;-71
2023/01/04 01:43:49;;;;;;;12.93;4.33;;;;;;;6.61;100.00;97469.34;5039959;28;20205;-72
2023/01/04 01:46:20;;;;;;;12.33;5.37;;;;;;;6.56;100.00;97474.13;5039231;28;20716;-70
2023/01/04 01:48:46;;;;;;;13.17;4.63;;;;;;;6.50;100.00;97479.84;5040746;28;20209;-71
2023/01/04 01:51:15;;;;;;;19.13;5.93;;;;;;;6.61;100.00;97485.06;5040483;28;20229;-72
2023/01/04 01:53:47;;;;;;;17.73;5.07;;;;;;;6.67;100.00;97492.44;5039795;28;20212;-71
2023/01/04 01:56:17;;;;;;;12.03;5.33;;;;;;;6.72;100.00;97485.03;5038239;28;20219;-71
2023/01/04 01:58:52;;;;;;;15.37;5.83;;;;;;;6.69;100.00;97474.81;5037903;28;20217;-71
2023/01/04 02:01:20;;;;;;;12.57;4.90;;;;;;;6.67;100.00;97474.94;5036310;28;20712;-72
2023/01/04 02:03:46;;;;;;;13.87;4.93;;;;;;;6.60;100.00;97472.94;5037105;28;20216;-72
2023/01/04 02:06:17;;;;;;;11.27;4.17;;;;;;;6.59;100.00;97473.88;5037600;28;20225;-71
2023/01/04 02:08:45;;;;;;;16.00;6.23;;;;;;;6.63;100.00;97483.16;5037626;28;20202;-71
2023/01/04 02:11:11;;;;;;;15.47;5.67;;;;;;;6.67;100.00;97481.97;5037590;28;20221;-71
2023/01/04 02:16:39;;;;;;;13.83;5.10;;;;;;;6.79;100.00;97479.16;5037142;28;20208;-71
2023/01/04 02:19:29;;;;;;;15.90;5.93;;;;;;;6.69;100.00;97474.81;5037809;28;20626;-71
2023/01/04 02:22:20;;;;;;;19.60;6.40;;;;;;;6.70;100.00;97473.84;5037508;28;20205;-71
2023/01/04 02:25:13;;;;;;;14.73;5.67;;;;;;;6.83;100.00;97470.09;5036075;28;20236;-71
2023/01/04 02:27:47;;;;;;;15.27;5.80;;;;;;;6.76;100.00;97478.59;5034766;28;20232;-71
2023/01/04 02:30:46;;;;;;;16.00;5.93;;;;;;;6.95;100.00;97473.50;5036974;28;20231;-71
2023/01/04 02:33:30;;;;;;;14.73;6.23;;;;;;;6.85;100.00;97472.63;5036799;28;20206;-71
2023/01/04 02:36:06;;;;;;;13.73;5.53;;;;;;;6.83;100.00;97466.66;5037056;28;20212;-71
2023/01/04 02:38:44;;;;;;;13.70;5.97;;;;;;;6.88;100.00;97467.13;5036895;28;20201;-71
2023/01/04 02:41:20;;;;;;;15.10;6.13;;;;;;;6.85;100.00;97462.97;5037008;28;20229;-71
2023/01/04 02:46:43;;;;;;;17.43;5.40;;;;;;;6.65;100.00;97461.13;5035944;28;20251;-71
2023/01/04 02:51:55;;;;;;;15.67;6.33;;;;;;;6.61;100.00;97461.50;5037113;28;20335;-71
2023/01/04 02:54:26;;;;;;;16.40;5.73;;;;;;;6.67;100.00;97464.44;5036137;28;20209;-71
2023/01/04 02:57:14;;;;;;;13.30;4.50;;;;;;;6.71;100.00;97454.56;5036651;28;20205;-70
2023/01/04 03:00:03;;;;;;;15.60;5.97;;;;;;;6.63;100.00;97450.91;5036883;28;20213;-71
2023/01/04 03:08:30;;;;;;;17.13;6.23;;;;;;;6.51;100.00;97449.28;5036846;28;20254;-70
2023/01/04 03:11:01;;;;;;;13.60;4.27;;;;;;;6.39;100.00;97452.84;5036502;28;20225;-71
2023/01/04 03:13:30;;;;;;;13.10;5.43;;;;;;;6.52;100.00;97449.16;5036364;28;20310;-71
2023/01/04 03:16:01;;;;;;;17.73;6.47;;;;;;;6.51;100.00;97444.84;5032194;28;20201;-70
2023/01/04 03:18:31;;;;;;;13.57;5.30;;;;;;;6.40;100.00;97444.91;5036314;28;20208;-71
2023/01/04 03:21:02;;;;;;;15.77;5.70;;;;;;;6.59;100.00;97436.38;5036604;28;20263;-72
2023/01/04 03:37:43;;;;;;;14.17;5.43;;;;;;;6.42;100.00;97436.91;5036284;28;20212;-71
2023/01/04 03:48:56;;;;;;;13.03;5.07;;;;;;;6.51;100.00;97410.00;5036017;28;20258;-71
2023/01/04 03:51:26;;;;;;;16.97;6.20;;;;;;;6.60;100.00;97402.22;5036345;28;21307;-71
2023/01/04 03:54:02;;;;;;;12.73;4.97;;;;;;;6.54;100.00;97400.09;5036191;28;20204;-71
2023/01/04 03:56:31;;;;;;;13.90;4.97;;;;;;;6.50;100.00;97388.19;5036041;28;20294;-72
2023/01/04 03:58:58;;;;;;;14.90;5.27;;;;;;;6.56;100.00;97385.09;5036334;28;20205;-72
2023/01/04 04:01:27;;;;;;;16.33;6.17;;;;;;;6.70;100.00;97387.41;5036751;28;20224;-72
2023/01/04 04:09:23;;;;;;;14.70;5.33;;;;;;;6.70;100.00;97384.81;5039517;28;20204;-72
2023/01/04 04:11:50;;;;;;;16.47;5.67;;;;;;;6.70;100.00;97392.66;5040108;28;20197;-70
2023/01/04 04:14:17;;;;;;;15.87;6.37;;;;;;;6.62;100.00;97381.97;5039003;28;20212;-72
2023/01/04 04:16:43;;;;;;;11.17;4.33;;;;;;;6.54;100.00;97388.78;5039584;28;20208;-71
2023/01/04 04:19:09;;;;;;;15.97;5.20;;;;;;;6.69;100.00;97383.13;5039783;28;20201;-71
2023/01/04 04:21:36;;;;;;;14.53;5.37;;;;;;;6.77;100.00;97380.72;5039291;28;20228;-71
2023/01/04 04:24:04;;;;;;;10.23;4.07;;;;;;;6.75;100.00;97380.03;5038671;28;20204;-71
2023/01/04 04:26:31;;;;;;;14.37;5.23;;;;;;;6.72;100.00;97375.00;5039530;28;20279;-71
2023/01/04 04:28:58;;;;;;;13.50;5.33;;;;;;;6.65;100.00;97363.38;5039344;28;20990;-71
2023/01/04 04:31:24;;;;;;;14.37;5.23;;;;;;;6.73;100.00;97363.59;5039373;28;20588;-70
2023/01/04 04:33:51;;;;;;;9.07;3.23;;;;;;;6.64;100.00;97369.59;5039013;28;20224;-72
2023/01/04 04:36:17;;;;;;;14.80;5.50;;;;;;;6.79;100.00;97369.16;5038847;28;20205;-71
2023/01/04 04:38:44;;;;;;;8.17;3.80;;;;;;;6.85;100.00;97373.06;5039092;28;20201;-71
2023/01/04 04:44:00;;;;;;;13.90;5.33;;;;;;;6.96;100.00;97370.38;5035491;28;20572;-71
2023/01/04 04:46:27;;;;;;;11.47;4.63;;;;;;;6.89;100.00;97369.22;5038540;28;20703;-71
2023/01/04 04:48:53;;;;;;;12.80;4.97;;;;;;;6.82;100.00;97370.69;5039029;28;20204;-72
2023/01/04 04:51:20;;;;;;;10.73;3.10;;;;;;;6.85;100.00;97368.66;5039274;28;20232;-71
2023/01/04 04:53:47;;;;;;;13.47;4.60;;;;;;;6.83;100.00;97364.50;5038400;28;20209;-71
2023/01/04 04:56:13;;;;;;;5.03;2.70;;;;;;;6.87;100.00;97366.75;5038772;28;20986;-71
2023/01/04 04:58:40;;;;;;;9.67;4.03;;;;;;;6.85;100.00;97358.16;5039451;28;21110;-71
2023/01/04 05:01:08;;;;;;;9.83;4.53;;;;;;;6.95;100.00;97369.56;5038672;28;20221;-71
2023/01/04 05:03:35;;;;;;;10.87;4.27;;;;;;;6.96;100.00;97370.38;5038246;28;20212;-71
2023/01/04 05:06:02;;;;;;;4.80;2.17;;;;;;;6.88;100.00;97367.56;5039201;28;20211;-70
2023/01/04 05:08:29;;;;;;;14.30;4.17;;;;;;;6.85;100.00;97357.34;5038916;28;20228;-71
2023/01/04 05:10:55;;;;;;;15.00;4.43;;;;;;;6.95;100.00;97366.94;5038181;28;20245;-72
2023/01/04 05:13:21;;;;;;;11.43;5.13;;;;;;;6.95;100.00;97368.69;5039631;28;21107;-71
2023/01/04 05:15:49;;;;;;;17.37;6.23;;;;;;;7.03;100.00;97366.28;5037716;28;20212;-71
2023/01/04 05:18:19;;;;;;;12.20;4.40;;;;;;;6.98;100.00;97368.47;5037819;28;20209;-71
2023/01/04 05:20:46;;;;;;;18.73;7.03;;;;;;;7.07;100.00;97371.13;5038469;28;20221;-71
2023/01/04 05:23:14;;;;;;;13.67;5.20;;;;;;;7.02;100.00;97362.81;5038731;28;20209;-71
2023/01/04 05:25:41;;;;;;;8.87;3.43;;;;;;;6.85;100.00;97357.34;5037792;28;20205;-71
2023/01/04 05:28:09;;;;;;;10.97;4.90;;;;;;;6.98;100.00;97352.75;5038189;28;20220;-71
2023/01/04 05:30:50;;;;;;;11.27;5.20;;;;;;;6.90;100.00;97348.13;5037880;28;20221;-71
2023/01/04 05:33:19;;;;;;;11.50;4.90;;;;;;;6.98;100.00;97360.59;5038252;28;20291;-71
2023/01/04 05:35:46;;;;;;;11.53;4.27;;;;;;;6.83;100.00;97359.25;5037656;28;20205;-71
2023/01/04 05:38:13;;;;;;;9.00;3.33;;;;;;;6.82;100.00;97358.44;5037980;28;20676;-71
2023/01/04 05:40:39;;;;;;;10.50;4.43;;;;;;;6.87;100.00;97358.03;5038253;28;20328;-71
2023/01/04 05:43:06;;;;;;;11.63;4.90;;;;;;;6.87;100.00;97355.41;5038092;28;20205;-71
2023/01/04 05:45:32;;;;;;;8.93;3.37;;;;;;;6.78;100.00;97364.03;5033799;28;20220;-71
2023/01/04 05:47:59;;;;;;;14.00;4.20;;;;;;;6.82;100.00;97361.06;5037900;28;20221;-71
2023/01/04 05:50:27;;;;;;;13.53;5.07;;;;;;;6.92;100.00;97375.03;5037688;28;20225;-71
2023/01/04 05:52:54;;;;;;;11.27;4.83;;;;;;;6.75;100.00;97372.16;5038310;28;20212;-72
2023/01/04 05:55:20;;;;;;;15.80;5.63;;;;;;;6.81;100.00;97371.63;5036997;28;20216;-71
2023/01/04 05:57:47;;;;;;;12.53;4.77;;;;;;;6.69;100.00;97368.25;5037435;28;20588;-71
2023/01/04 06:00:15;;;;;;;15.53;5.47;;;;;;;6.70;100.00;97358.59;5037777;28;20221;-70
2023/01/04 06:02:42;;;;;;;9.97;4.33;;;;;;;6.61;100.00;97353.31;5037643;28;20197;-72
2023/01/04 06:05:09;;;;;;;13.67;4.70;;;;;;;6.77;100.00;97351.88;5036423;28;20205;-72
2023/01/04 06:07:38;;;;;;;12.37;4.23;;;;;;;6.76;100.00;97347.63;5037150;28;20244;-71
2023/01/04 06:10:05;;;;;;;12.27;4.20;;;;;;;6.70;100.00;97350.75;5037818;28;20884;-72
2023/01/04 06:12:32;;;;;;;15.43;4.97;;;;;;;6.74;100.00;97347.75;5037434;28;20629;-71
2023/01/04 06:14:59;;;;;;;12.97;4.70;;;;;;;6.69;100.00;97346.47;5036774;28;20201;-72
2023/01/04 06:17:25;;;;;;;12.03;4.70;;;;;;;6.58;100.00;97333.44;5037645;28;20208;-71
2023/01/04 06:19:51;;;;;;;12.30;4.60;;;;;;;6.66;100.00;97336.25;5037119;28;21199;-71
2023/01/04 06:22:19;;;;;;;14.37;5.57;;;;;;;6.76;100.00;97339.78;5037192;28;20213;-71
2023/01/04 06:24:47;;;;;;;15.53;5.27;;;;;;;6.76;100.00;97342.41;5036965;28;20206;-72
2023/01/04 06:27:13;;;;;;;17.47;6.40;;;;;;;6.70;100.00;97333.22;5036185;28;20224;-71
2023/01/04 06:29:40;;;;;;;11.90;5.00;;;;;;;6.67;100.00;97337.91;5036661;28;20572;-71
2023/01/04 06:32:06;;;;;;;17.80;6.33;;;;;;;6.70;100.00;97335.03;5037513;28;20211;-71
2023/01/04 06:34:33;;;;;;;16.03;6.20;;;;;;;6.62;100.00;97339.22;5036364;28;20872;-71
2023/01/04 06:36:59;;;;;;;14.93;5.23;;;;;;;6.68;100.00;97336.94;5036900;28;20197;-71
2023/01/04 06:39:27;;;;;;;16.93;5.83;;;;;;;6.71;100.00;97327.03;5036954;28;20201;-71
2023/01/04 06:41:55;;;;;;;16.10;5.80;;;;;;;6.88;100.00;97336.94;5036977;28;20568;-71
2023/01/04 06:44:21;;;;;;;14.43;5.37;;;;;;;6.85;100.00;97328.53;5033232;28;20244;-71
2023/01/04 06:46:48;;;;;;;11.30;4.40;;;;;;;6.80;100.00;97328.09;5038868;28;20597;-72
2023/01/04 06:49:14;;;;;;;16.57;4.90;;;;;;;6.84;100.00;97326.88;5039448;28;20201;-72
2023/01/04 06:51:41;;;;;;;12.13;5.43;;;;;;;6.85;100.00;97316.25;5039429;28;20224;-72
2023/01/04 06:54:10;;;;;;;9.87;4.57;;;;;;;7.00;100.00;97308.88;5038146;28;21105;-72
2023/01/04 06:56:37;;;;;;;13.27;4.63;;;;;;;6.88;100.00;97313.38;5038539;28;20217;-72
2023/01/04 06:59:04;;;;;;;13.90;4.57;;;;;;;6.98;100.00;97300.34;5039166;28;20213;-72
2023/01/04 07:01:31;;;;;;;8.97;3.00;;;;;;;6.87;100.00;97303.88;5038987;28;20236;-72
2023/01/04 07:03:57;;;;;;;11.90;4.13;;;;;;;6.89;100.00;97311.59;5037547;28;21109;-72
2023/01/04 07:06:24;;;;;;;6.60;3.37;;;;;;;7.00;100.00;97308.88;5039063;28;20203;-72
2023/01/04 07:08:50;;;;;;;8.47;3.53;;;;;;;7.11;100.00;97300.97;5038693;28;20221;-72
2023/01/04 07:11:17;;;;;;;11.00;4.53;;;;;;;7.12;100.00;97300.81;5038381;28;20228;-72
2023/01/04 07:13:43;;;;;;;10.07;4.43;;;;;;;7.11;100.00;97301.78;5038772;28;20209;-72
2023/01/04 07:16:11;;;;;;;10.90;5.07;;;;;;;7.21;100.00;97304.47;5038189;28;20212;-72
2023/01/04 07:18:37;;;;;;;12.83;5.07;;;;;;;7.13;100.00;97307.72;5038872;28;20200;-72
2023/01/04 07:21:04;;;;;;;18.73;6.10;;;;;;;7.24;100.00;97301.56;5039310;28;20232;-72
2023/01/04 07:23:31;;;;;;;13.37;4.60;;;;;;;7.22;100.00;97299.09;5038012;28;20685;-72
2023/01/04 07:26:01;;;;;;;10.80;4.33;;;;;;;7.26;100.00;97290.81;5037954;28;21132;-72
2023/01/04 07:31:12;;;;;;;10.30;4.37;;;;;;;7.33;100.00;97297.22;5038972;28;20236;-72
2023/01/04 07:33:39;;;;;;;10.20;3.83;;;;;;;7.28;100.00;97298.56;5037214;28;20687;-72
2023/01/04 07:36:07;;;;;;;9.87;4.20;;;;;;;7.26;100.00;97299.66;5038191;28;20205;-72
2023/01/04 07:38:33;;;;;;;9.47;4.20;;;;;;;7.41;100.00;97294.75;5041449;28;20214;-72
2023/01/04 07:41:00;;;;;;;7.13;3.20;;;;;;;7.25;100.00;97292.75;5042057;28;20221;-72
2023/01/04 07:43:26;;;;;;;6.23;3.27;;;;;;;7.31;100.00;97293.88;5042458;28;20205;-72
2023/01/04 07:45:53;;;;;;;10.77;4.07;;;;;;;7.32;100.00;97295.53;5040959;28;20228;-72
2023/01/04 07:48:21;;;;;;;10.90;4.50;;;;;;;7.56;100.00;97296.06;5044482;28;20229;-72
2023/01/04 07:50:47;;;;;;;9.87;4.27;;;;;;;7.52;100.00;97291.19;5042030;28;20701;-72
2023/01/04 07:53:14;;;;;;;14.80;5.63;;;;;;;7.46;100.00;97297.00;5042027;28;20232;-72
2023/01/04 07:55:40;;;;;;;10.93;4.33;;;;;;;7.52;100.00;97299.06;5041609;28;20205;-72
2023/01/04 07:58:07;;;;;;;12.43;4.80;;;;;;;7.51;100.00;97287.75;5041602;28;20213;-72
2023/01/04 08:00:33;;;;;;;14.83;4.93;;;;;;;7.60;100.00;97300.06;5041578;28;20225;-72
2023/01/04 08:03:00;;;;;;;9.93;4.80;;;;;;;7.59;100.00;97293.16;5040960;28;20209;-72
2023/01/04 08:05:27;;;;;;;14.33;4.70;;;;;;;7.79;100.00;97300.13;5039596;28;20220;-72
2023/01/04 08:07:54;;;;;;;11.47;4.67;;;;;;;7.62;100.00;97287.63;5040951;28;20347;-72
2023/01/04 08:10:20;;;;;;;19.33;4.87;;;;;;;7.67;100.00;97301.19;5041121;28;20275;-72
2023/01/04 08:12:47;;;;;;;10.97;4.50;;;;;;;7.70;100.00;97298.31;5040584;28;20212;-72
2023/01/04 08:15:14;;;;;;;13.73;5.13;;;;;;;7.68;100.00;97287.09;5039777;28;20216;-72
2023/01/04 08:17:40;;;;;;;17.10;4.90;;;;;;;7.71;100.00;97291.25;5040851;28;20201;-72
2023/01/04 08:20:08;;;;;;;13.77;4.93;;;;;;;7.72;100.00;97285.06;5041009;28;20736;-72
2023/01/04 08:22:36;;;;;;;15.87;5.67;;;;;;;7.93;100.00;97291.88;5042736;28;20309;-72
2023/01/04 08:25:02;;;;;;;11.40;4.70;;;;;;;7.76;100.00;97287.25;5041407;28;20209;-73
2023/01/04 08:27:28;;;;;;;13.37;5.00;;;;;;;7.77;100.00;97294.16;5039994;28;20248;-72
2023/01/04 08:29:55;;;;;;;11.43;5.10;;;;;;;7.79;100.00;97294.03;5040620;28;20236;-72
2023/01/04 08:32:21;;;;;;;12.70;4.93;;;;;;;7.85;100.00;97304.81;5041045;28;20201;-72
2023/01/04 08:34:48;;;;;;;11.33;4.50;;;;;;;7.84;100.00;97295.31;5040296;28;20204;-72
2023/01/04 08:37:14;;;;;;;12.70;5.53;;;;;;;7.96;100.00;97307.34;5041034;28;20208;-72
2023/01/04 08:39:42;;;;;;;12.23;5.13;;;;;;;8.05;100.00;97303.91;5040751;28;20201;-72
2023/01/04 08:42:09;;;;;;;11.80;4.50;;;;;;;7.94;100.00;97310.09;5041600;28;20205;-72
2023/01/04 08:44:35;;;;;;;14.67;5.90;;;;;;;7.95;100.00;97301.25;5037697;28;20208;-72
2023/01/04 08:47:02;;;;;;;9.70;4.80;;;;;;;7.83;100.00;97304.13;5039718;28;20209;-72
2023/01/04 08:49:28;;;;;;;10.10;3.90;;;;;;;8.05;100.00;97296.84;5040534;28;20237;-72
2023/01/04 08:51:54;;;;;;;11.57;4.60;;;;;;;8.04;100.00;97294.34;5040890;28;20201;-72
2023/01/04 08:54:21;;;;;;;12.47;5.30;;;;;;;8.09;100.00;97284.28;5039366;28;20208;-72
2023/01/04 08:56:49;;;;;;;14.00;4.60;;;;;;;8.27;100.00;97290.53;5040170;28;20220;-72
2023/01/04 08:59:16;;;;;;;10.47;4.73;;;;;;;8.15;100.00;97274.09;5040331;28;20208;-72
2023/01/04 09:01:42;;;;;;;8.10;4.00;;;;;;;8.12;100.00;97260.38;5040269;28;20217;-72
2023/01/04 09:04:09;;;;;;;11.10;4.77;;;;;;;8.20;100.00;97271.06;5039757;28;20205;-72
2023/01/04 09:06:36;;;;;;;9.53;4.33;;;;;;;8.27;100.00;97269.53;5040052;28;20219;-72
2023/01/04 09:09:03;;;;;;;9.83;4.47;;;;;;;8.25;100.00;97260.94;5039879;28;20225;-72
2023/01/04 09:11:30;;;;;;;13.60;5.17;;;;;;;8.08;100.00;97269.50;5039230;28;20233;-72
2023/01/04 09:14:00;;;;;;;13.83;4.70;;;;;;;8.29;100.00;97272.88;5039184;28;20212;-72
2023/01/04 09:16:26;;;;;;;11.77;5.23;;;;;;;8.21;100.00;97268.31;5039249;28;20205;-72
2023/01/04 09:18:53;;;;;;;8.20;3.67;;;;;;;8.16;100.00;97259.16;5039964;28;20204;-72
2023/01/04 09:21:21;;;;;;;11.83;4.50;;;;;;;8.22;100.00;97264.72;5040075;28;20225;-72
2023/01/04 09:23:48;;;;;;;10.23;4.47;;;;;;;8.05;100.00;97252.22;5038671;28;20626;-72
2023/01/04 09:26:16;;;;;;;14.43;5.27;;;;;;;8.15;100.00;97252.28;5036229;28;20255;-72
2023/01/04 09:28:43;;;;;;;14.13;4.97;;;;;;;8.02;100.00;97254.31;5038827;28;20221;-72
2023/01/04 09:31:13;;;;;;;14.37;5.07;;;;;;;8.10;100.00;97254.44;5039031;28;21270;-72
2023/01/04 09:33:40;;;;;;;12.73;5.07;;;;;;;8.05;100.00;97254.84;5038191;28;20205;-72
2023/01/04 09:36:08;;;;;;;7.57;3.27;;;;;;;8.01;100.00;97260.53;5038470;28;20716;-72
2023/01/04 09:38:35;;;;;;;8.87;3.70;;;;;;;7.97;100.00;97259.13;5038094;28;20197;-72
2023/01/04 09:41:10;;;;;;;12.87;5.03;;;;;;;8.12;100.00;97263.00;5037711;28;21134;-72
2023/01/04 09:43:43;;;;;;;5.37;2.83;;;;;;;8.05;100.00;97259.28;5037282;28;20211;-72
2023/01/04 09:46:18;;;;;;;12.87;5.53;;;;;;;8.19;100.00;97267.59;5038354;28;20286;-72
2023/01/04 09:48:45;;;;;;;12.40;5.73;;;;;;;8.00;100.00;97266.72;5037890;28;20235;-72
2023/01/04 09:51:16;;;;;;;15.50;6.53;;;;;;;8.12;100.00;97273.50;5037832;28;20225;-72
2023/01/04 09:53:46;;;;;;;13.67;4.97;;;;;;;8.02;100.00;97264.81;5037169;28;20212;-72
2023/01/04 09:56:23;;;;;;;7.33;3.63;;;;;;;8.15;100.00;97254.91;5037494;28;20208;-72
2023/01/04 09:58:52;;;;;;;11.50;4.73;;;;;;;7.99;100.00;97255.41;5037652;28;20201;-72
2023/01/04 10:01:23;;;;;;;13.03;5.17;;;;;;;8.00;100.00;97240.47;5036907;28;20224;-72
2023/01/04 10:03:59;;;;;;;12.53;4.63;;;;;;;8.00;100.00;97229.97;5036969;28;20201;-72
2023/01/04 10:06:26;;;;;;;15.40;4.87;;;;;;;7.89;100.00;97224.84;5037222;28;20575;-72
2023/01/04 10:08:53;;;;;;;10.70;3.83;;;;;;;7.84;100.00;97208.72;5037871;28;20225;-72
2023/01/04 10:11:31;;;;;;;11.67;3.77;;;;;;;7.94;100.00;97201.66;5037407;28;20228;-71
2023/01/04 10:14:23;;;;;;;10.50;3.90;;;;;;;8.05;100.00;97201.53;5036603;28;20204;-71
2023/01/04 10:17:09;;;;;;;10.20;3.83;;;;;;;8.01;100.00;97206.22;5037833;28;20201;-71
2023/01/04 10:19:48;;;;;;;12.40;4.23;;;;;;;8.09;100.00;97205.53;5037004;28;20200;-72
2023/01/04 10:22:21;;;;;;;6.40;3.30;;;;;;;8.06;100.00;97214.50;5037177;28;20208;-72
2023/01/04 10:24:58;;;;;;;11.70;4.67;;;;;;;8.22;100.00;97211.34;5034510;28;20205;-72
2023/01/04 10:27:34;;;;;;;12.47;4.93;;;;;;;8.29;100.00;97209.84;5037112;28;20209;-72
2023/01/04 10:30:11;;;;;;;9.03;4.23;;;;;;;8.05;100.00;97206.78;5037131;28;20232;-71
2023/01/04 10:32:42;;;;;;;12.47;4.27;;;;;;;8.31;100.00;97214.00;5037036;28;20201;-70
2023/01/04 10:35:19;;;;;;;6.37;3.47;;;;;;;8.20;100.00;97208.06;5036665;28;20597;-71
2023/01/04 10:37:48;;;;;;;8.30;3.53;;;;;;;8.24;100.00;97202.38;5037130;28;20731;-71
2023/01/04 10:40:17;;;;;;;8.40;3.90;;;;;;;8.21;100.00;97201.81;5037020;28;20797;-71
2023/01/04 10:42:52;;;;;;;7.60;3.27;;;;;;;8.24;100.00;97204.19;5037247;28;20208;-72
2023/01/04 10:45:26;;;;;;;7.33;3.83;;;;;;;8.31;100.00;97198.25;5035986;28;20208;-72
2023/01/04 10:48:04;;;;;;;11.63;3.70;;;;;;;8.30;100.00;97206.22;5037131;28;20205;-71
2023/01/04 10:50:36;;;;;;;9.87;4.17;;;;;;;8.29;100.00;97209.84;5037121;28;20228;-72
2023/01/04 10:53:06;;;;;;;6.63;3.40;;;;;;;8.28;100.00;97208.19;5036958;28;20202;-71
2023/01/04 10:55:40;;;;;;;8.07;3.33;;;;;;;8.29;100.00;97200.16;5036248;28;20212;-72
2023/01/04 10:58:12;;;;;;;9.90;4.10;;;;;;;8.37;100.00;97196.84;5037346;28;20213;-72
2023/01/04 11:00:44;;;;;;;9.73;3.67;;;;;;;8.30;100.00;97190.47;5037120;28;20223;-72
2023/01/04 11:03:20;;;;;;;9.17;3.47;;;;;;;8.28;100.00;97195.06;5036587;28;20677;-72
2023/01/04 11:05:50;;;;;;;10.43;3.97;;;;;;;8.36;100.00;97189.94;5035580;28;20197;-72
2023/01/04 11:08:20;;;;;;;9.73;3.23;;;;;;;8.35;100.00;97190.88;5036499;28;20235;-72
2023/01/04 11:10:52;;;;;;;8.00;4.00;;;;;;;8.28;100.00;97188.00;5036895;28;20217;-72
2023/01/04 11:13:18;;;;;;;15.00;4.37;;;;;;;8.01;100.00;97184.41;5041764;28;20205;-72
2023/01/04 11:15:46;;;;;;;4.50;2.00;;;;;;;8.19;100.00;97180.97;5042276;28;20205;-71
2023/01/04 11:18:15;;;;;;;5.67;2.17;;;;;;;8.23;100.00;97189.41;5043219;28;20291;-71
2023/01/04 11:20:43;;;;;;;7.77;3.50;;;;;;;8.16;100.00;97183.03;5043080;28;20233;-72
2023/01/04 11:23:13;;;;;;;7.57;3.43;;;;;;;8.38;100.00;97169.63;5043228;28;20204;-71
2023/01/04 11:25:44;;;;;;;9.33;3.47;;;;;;;8.43;100.00;97154.25;5040600;28;20654;-72
2023/01/04 11:28:16;;;;;;;6.20;2.50;;;;;;;8.41;100.00;97149.13;5043913;28;20216;-72
2023/01/04 11:30:51;;;;;;;8.37;3.33;;;;;;;8.44;100.00;97150.66;5042922;28;20224;-72
2023/01/04 11:33:20;;;;;;;7.17;3.67;;;;;;;8.38;100.00;97146.78;5043226;28;20585;-72
2023/01/04 11:35:48;;;;;;;9.17;2.97;;;;;;;8.32;100.00;97131.59;5042460;28;20212;-72
2023/01/04 11:38:17;;;;;;;7.80;2.77;;;;;;;8.47;100.00;97127.56;5043179;28;20216;-72
2023/01/04 11:40:56;;;;;;;7.20;3.13;;;;;;;8.55;100.00;97123.25;5042543;28;20267;-72
2023/01/04 11:43:24;;;;;;;11.03;3.53;;;;;;;8.59;100.00;97119.38;5043013;28;20214;-72
2023/01/04 11:45:59;;;;;;;9.17;3.57;;;;;;;8.73;100.00;97124.16;5043008;28;20201;-72
2023/01/04 11:48:36;;;;;;;7.13;3.43;;;;;;;8.79;100.00;97120.94;5043075;28;20233;-72
2023/01/04 11:51:04;;;;;;;7.10;2.90;;;;;;;8.65;100.00;97113.53;5042826;28;20227;-71
2023/01/04 11:53:33;;;;;;;4.87;2.47;;;;;;;8.82;100.00;97115.41;5043475;28;20219;-71
2023/01/04 11:56:28;;;;;;;6.30;2.47;;;;;;;8.82;100.00;97120.66;5042242;28;20211;-71
2023/01/04 11:59:15;;;;;;;11.27;3.60;;;;;;;9.03;100.00;97110.72;5042880;28;20219;-72
2023/01/04 12:01:44;;;;;;;8.83;4.13;;;;;;;8.98;100.00;97105.06;5043256;28;20235;-72
2023/01/04 12:04:16;;;;;;;4.17;2.17;;;;;;;9.13;100.00;97095.72;5042275;28;20255;-72
2023/01/04 12:06:50;;;;;;;6.80;3.30;;;;;;;9.16;100.00;97091.00;5042627;28;20203;-72
2023/01/04 12:09:18;;;;;;;4.53;2.43;;;;;;;8.91;100.00;97090.88;5043082;28;20225;-72
2023/01/04 12:11:49;;;;;;;6.00;2.73;;;;;;;9.09;99.45;97078.59;5043028;28;20217;-72
2023/01/04 12:14:22;;;;;;;7.10;3.13;;;;;;;9.16;99.88;97071.75;5041988;28;20208;-73
2023/01/04 12:16:55;;;;;;;6.03;2.20;;;;;;;9.17;98.75;97074.25;5042875;28;20201;-72
2023/01/04 12:19:25;;;;;;;3.90;1.47;;;;;;;9.28;97.70;97073.22;5043314;28;20208;-71
2023/01/04 12:21:54;;;;;;;4.77;2.03;;;;;;;9.22;96.93;97072.00;5043036;28;20236;-71
2023/01/04 12:24:24;;;;;;;4.57;2.37;;;;;;;9.36;97.67;97081.19;5037562;28;20228;-72